Aviation Digital Data Service (ADDS)

Output produced by METARs form (1924 UTC 19 August 2019)
found at http://www.aviationweather.gov/metar/data/
 
Forecast for: VTBU (RAYONG/U-TAPHAO , TH)
Text: TAF VTBU 191700Z 1918/2018 21004KT 9999 FEW020 SCT100
Forecast period: 1800 UTC 19 August 2019 to 0100 UTC 20 August 2019
Forecast type: FROM: standard forecast or significant change
Winds: from the SSW (210 degrees) at 5 MPH (4 knots; 2.1 m/s)
Visibility: 6 or more miles 10+ km)
Ceiling: at least 12,000 feet AGL
Clouds: few clouds at 2000 feet AGL
scattered clouds at 10000 feet AGL
Weather: no significant weather forecast for this period
Text: BECMG 2001/2003 22010KT
Forecast period: 0100 to 1800 UTC 20 August 2019
Forecast type: BECOMING: Conditions expected to become as follows by 0300 UTC 20 August 2019
Winds: from the SW (220 degrees) at 12 MPH (10 knots; 5.1 m/s)
Visibility: 6 or more miles 10+ km)
Ceiling: at least 12,000 feet AGL
Clouds: few clouds at 2000 feet AGL
scattered clouds at 10000 feet AGL
Weather: no significant weather forecast for this period